createdAt,value
2022-12-01T00:01:26.193Z,93.01
2022-12-01T00:03:54.658Z,91.51
2022-12-01T00:06:25.287Z,92.98
2022-12-01T00:09:16.489Z,92.65
2022-12-01T00:11:48.315Z,91.40
2022-12-01T00:14:16.500Z,91.77
2022-12-01T00:16:44.673Z,92.90
2022-12-01T00:19:12.357Z,92.52
2022-12-01T00:21:39.852Z,92.21
2022-12-01T00:24:07.692Z,92.31
2022-12-01T00:26:37.732Z,92.63
2022-12-01T00:29:05.195Z,92.54
2022-12-01T00:31:32.856Z,91.95
2022-12-01T00:34:00.265Z,92.30
2022-12-01T00:36:27.658Z,91.80
2022-12-01T00:38:56.426Z,91.99
2022-12-01T00:41:25.463Z,92.02
2022-12-01T00:43:53.109Z,92.43
2022-12-01T00:46:21.020Z,93.00
2022-12-01T00:48:49.611Z,96.96
2022-12-01T00:51:17.032Z,95.78
2022-12-01T00:53:44.332Z,96.31
2022-12-01T00:56:11.710Z,94.85
2022-12-01T00:58:39.036Z,94.90
2022-12-01T01:01:06.541Z,95.27
2022-12-01T01:03:34.848Z,94.96
2022-12-01T01:06:11.330Z,94.17
2022-12-01T01:08:39.301Z,93.86
2022-12-01T01:11:07.872Z,94.13
2022-12-01T01:13:36.606Z,94.00
2022-12-01T01:16:13.687Z,92.99
2022-12-01T01:18:41.271Z,92.99
2022-12-01T01:21:11.647Z,93.04
2022-12-01T01:23:39.201Z,93.36
2022-12-01T01:26:27.603Z,96.75
2022-12-01T01:29:01.238Z,96.70
2022-12-01T01:31:30.695Z,96.23
2022-12-01T01:33:58.494Z,96.67
2022-12-01T01:36:26.530Z,95.27
2022-12-01T01:38:55.211Z,95.53
2022-12-01T01:41:23.535Z,95.41
2022-12-01T01:43:59.624Z,96.19
2022-12-01T01:46:28.457Z,95.02
2022-12-01T01:49:08.882Z,95.55
2022-12-01T01:51:46.974Z,95.62
2022-12-01T01:54:25.671Z,95.35
2022-12-01T01:56:54.420Z,97.31
2022-12-01T01:59:28.350Z,97.87
2022-12-01T02:02:08.515Z,97.49
2022-12-01T02:04:40.314Z,96.85
2022-12-01T02:07:08.979Z,97.63
2022-12-01T02:09:36.597Z,99.17
2022-12-01T02:12:45.259Z,99.18
2022-12-01T02:15:43.606Z,98.97
2022-12-01T02:18:29.379Z,98.34
2022-12-01T02:21:51.009Z,97.88
2022-12-01T02:24:42.852Z,97.86
2022-12-01T02:27:31.824Z,97.63
2022-12-01T02:30:00.329Z,97.64
2022-12-01T02:33:06.149Z,98.08
2022-12-01T02:36:28.585Z,99.56
2022-12-01T02:39:20.518Z,100.00
2022-12-01T02:41:59.078Z,100.00
2022-12-01T02:44:29.226Z,99.46
2022-12-01T02:47:01.777Z,98.37
2022-12-01T02:49:35.385Z,97.90
2022-12-01T02:52:06.506Z,97.37
2022-12-01T02:54:34.857Z,98.90
2022-12-01T02:57:02.345Z,98.37
2022-12-01T02:59:29.686Z,98.69
2022-12-01T03:02:18.833Z,97.94
2022-12-01T03:05:04.750Z,97.26
2022-12-01T03:07:59.937Z,97.58
2022-12-01T03:10:48.762Z,96.72
2022-12-01T03:13:54.577Z,93.14
2022-12-01T03:16:51.089Z,92.70
2022-12-01T03:19:36.812Z,93.85
2022-12-01T03:22:26.107Z,93.17
2022-12-01T03:24:55.871Z,92.43
2022-12-01T03:27:29.916Z,91.51
2022-12-01T03:30:00.028Z,91.61
2022-12-01T03:32:33.212Z,92.44
2022-12-01T03:35:23.594Z,92.35
2022-12-01T03:38:11.989Z,92.53
2022-12-01T03:40:40.413Z,92.27
2022-12-01T03:43:12.224Z,92.11
2022-12-01T03:46:01.231Z,93.13
2022-12-01T03:48:30.637Z,91.97
2022-12-01T03:50:57.878Z,91.69
2022-12-01T03:53:31.756Z,92.20
2022-12-01T03:56:06.069Z,91.92
2022-12-01T03:58:39.227Z,92.32
2022-12-01T04:01:07.816Z,92.77
2022-12-01T04:03:35.240Z,92.89
2022-12-01T04:06:02.850Z,92.94
2022-12-01T04:08:30.830Z,93.55
2022-12-01T04:10:58.185Z,93.18
2022-12-01T04:13:26.552Z,93.27
2022-12-01T04:15:55.745Z,93.71
2022-12-01T04:18:23.211Z,93.23
2022-12-01T04:20:51.708Z,93.27
2022-12-01T04:23:37.529Z,93.03
2022-12-01T04:26:05.397Z,93.72
2022-12-01T04:28:32.864Z,93.79
2022-12-01T04:31:00.335Z,94.29
2022-12-01T04:33:29.513Z,94.71
2022-12-01T04:35:58.946Z,94.43
2022-12-01T04:38:30.541Z,94.17
2022-12-01T04:40:58.368Z,94.01
2022-12-01T04:43:25.722Z,94.05
2022-12-01T04:45:53.044Z,94.00
2022-12-01T04:48:20.408Z,94.01
2022-12-01T04:50:49.289Z,93.95
2022-12-01T04:53:16.713Z,93.05
2022-12-01T04:55:44.053Z,92.88
2022-12-01T04:58:11.440Z,92.72
2022-12-01T05:00:38.978Z,92.48
2022-12-01T05:03:09.637Z,92.67
2022-12-01T05:05:40.971Z,92.67
2022-12-01T05:08:08.436Z,92.28
2022-12-01T05:10:37.553Z,92.31
2022-12-01T05:13:06.050Z,93.07
2022-12-01T05:15:33.426Z,93.04
2022-12-01T05:18:00.978Z,94.54
2022-12-01T05:20:46.796Z,93.94
2022-12-01T05:23:16.965Z,94.71
2022-12-01T05:25:44.674Z,94.71
2022-12-01T05:28:12.104Z,93.82
2022-12-01T05:30:39.626Z,93.24
2022-12-01T05:33:07.155Z,93.55
2022-12-01T05:35:34.778Z,93.78
2022-12-01T05:38:07.542Z,93.94
2022-12-01T05:40:36.582Z,93.88
2022-12-01T05:43:04.661Z,94.13
2022-12-01T05:45:32.190Z,92.99
2022-12-01T05:48:01.341Z,93.97
2022-12-01T05:50:30.145Z,94.81
2022-12-01T05:52:58.563Z,94.71
2022-12-01T05:55:27.060Z,95.18
2022-12-01T05:57:54.565Z,95.20
2022-12-01T06:00:22.180Z,94.89
2022-12-01T06:02:49.582Z,96.00
2022-12-01T06:05:16.972Z,96.08
2022-12-01T06:07:44.317Z,94.63
2022-12-01T06:10:12.288Z,94.73
2022-12-01T06:12:58.210Z,93.94
2022-12-01T06:15:26.785Z,93.54
2022-12-01T06:17:54.420Z,94.94
2022-12-01T06:20:23.356Z,94.49
2022-12-01T06:22:50.763Z,93.45
2022-12-01T06:25:18.183Z,93.32
2022-12-01T06:27:45.593Z,92.89
2022-12-01T06:30:13.410Z,94.18
2022-12-01T06:32:40.729Z,93.76
2022-12-01T06:35:08.501Z,93.54
2022-12-01T06:37:38.142Z,94.81
2022-12-01T06:40:08.601Z,93.04
2022-12-01T06:42:35.942Z,92.15
2022-12-01T06:45:03.356Z,93.07
2022-12-01T06:47:31.003Z,93.10
2022-12-01T06:49:58.618Z,93.77
2022-12-01T06:52:25.973Z,92.21
2022-12-01T06:54:53.305Z,91.44
2022-12-01T06:57:21.004Z,91.06
2022-12-01T06:59:49.057Z,90.41
2022-12-01T07:02:17.141Z,90.63
2022-12-01T07:04:44.596Z,91.72
2022-12-01T07:07:13.981Z,91.97
2022-12-01T07:09:41.439Z,91.54
2022-12-01T07:12:08.809Z,90.83
2022-12-01T07:14:36.367Z,92.09
2022-12-01T07:17:03.875Z,91.94
2022-12-01T07:19:31.353Z,91.52
2022-12-01T07:22:00.123Z,90.43
2022-12-01T07:24:27.593Z,90.81
2022-12-01T07:26:54.978Z,91.11
2022-12-01T07:29:22.376Z,89.49
2022-12-01T07:31:49.746Z,89.09
2022-12-01T07:34:17.216Z,88.61
2022-12-01T07:36:44.535Z,88.16
2022-12-01T07:39:11.887Z,87.67
2022-12-01T07:41:39.415Z,87.50
2022-12-01T07:44:06.898Z,88.21
2022-12-01T07:46:34.431Z,87.58
2022-12-01T07:49:06.955Z,87.37
2022-12-01T07:51:35.069Z,87.34
2022-12-01T07:54:04.371Z,86.61
2022-12-01T07:56:31.880Z,85.00
2022-12-01T07:58:59.301Z,84.12
2022-12-01T08:01:26.828Z,83.81
2022-12-01T08:03:57.313Z,82.98
2022-12-01T08:06:26.071Z,82.43
2022-12-01T08:08:53.490Z,82.34
2022-12-01T08:11:27.910Z,82.26
2022-12-01T08:13:55.838Z,83.32
2022-12-01T08:16:24.487Z,82.76
2022-12-01T08:18:52.732Z,81.31
2022-12-01T08:21:21.766Z,80.73
2022-12-01T08:23:53.754Z,80.09
2022-12-01T08:26:22.067Z,80.32
2022-12-01T08:28:49.721Z,80.42
2022-12-01T08:31:29.517Z,78.26
2022-12-01T08:33:57.617Z,77.58
2022-12-01T08:36:25.664Z,77.18
2022-12-01T08:38:55.086Z,76.68
2022-12-01T08:41:24.193Z,76.25
2022-12-01T08:44:00.286Z,75.57
2022-12-01T08:46:33.000Z,75.63
2022-12-01T08:49:01.476Z,74.50
2022-12-01T08:51:29.313Z,74.22
2022-12-01T08:53:58.386Z,73.13
2022-12-01T08:56:27.528Z,72.94
2022-12-01T08:58:55.485Z,72.71
2022-12-01T09:01:23.178Z,70.71
2022-12-01T09:04:05.321Z,70.72
2022-12-01T09:06:37.752Z,68.25
2022-12-01T09:09:05.212Z,66.93
2022-12-01T09:11:32.485Z,68.06
2022-12-01T09:14:00.686Z,68.32
2022-12-01T09:16:28.213Z,68.18
2022-12-01T09:18:57.128Z,67.33
2022-12-01T09:21:32.907Z,65.22
2022-12-01T09:24:01.944Z,63.91
2022-12-01T09:26:29.921Z,63.92
2022-12-01T09:29:00.438Z,64.85
2022-12-01T09:31:28.642Z,64.07
2022-12-01T09:33:58.402Z,63.28
2022-12-01T09:36:26.568Z,64.41
2022-12-01T09:38:53.939Z,62.84
2022-12-01T09:41:41.971Z,62.29
2022-12-01T09:44:31.018Z,61.94
2022-12-01T09:47:30.757Z,60.13
2022-12-01T09:50:11.144Z,59.75
2022-12-01T09:52:52.597Z,59.94
2022-12-01T09:55:23.159Z,60.89
2022-12-01T09:57:54.347Z,59.84
2022-12-01T10:00:24.735Z,58.94
2022-12-01T10:03:05.904Z,56.57
2022-12-01T10:06:10.396Z,57.29
2022-12-01T10:08:39.041Z,57.58
2022-12-01T10:11:29.770Z,57.10
2022-12-01T10:13:58.832Z,57.62
2022-12-01T10:16:35.172Z,58.07
2022-12-01T10:19:13.120Z,57.97
2022-12-01T10:21:40.445Z,57.76
2022-12-01T10:24:16.941Z,56.46
2022-12-01T10:27:14.026Z,54.61
2022-12-01T10:29:55.622Z,55.33
2022-12-01T10:33:05.489Z,54.71
2022-12-01T10:35:37.735Z,54.94
2022-12-01T10:38:13.353Z,53.32
2022-12-01T10:40:42.734Z,54.32
2022-12-01T10:43:10.910Z,55.96
2022-12-01T10:45:44.030Z,56.51
2022-12-01T10:48:15.685Z,55.89
2022-12-01T10:50:51.903Z,55.36
2022-12-01T10:53:25.023Z,55.38
2022-12-01T10:56:18.221Z,54.66
2022-12-01T10:58:48.120Z,54.84
2022-12-01T11:01:36.010Z,54.30
2022-12-01T11:04:08.405Z,54.49
2022-12-01T11:06:37.517Z,54.59
2022-12-01T11:09:21.503Z,53.65
2022-12-01T11:12:02.892Z,53.76
2022-12-01T11:14:43.622Z,54.08
2022-12-01T11:17:19.631Z,54.74
2022-12-01T11:19:47.351Z,52.63
2022-12-01T11:22:26.731Z,53.13
2022-12-01T11:24:53.976Z,54.87
2022-12-01T11:27:34.715Z,56.20
2022-12-01T11:30:20.164Z,55.09
2022-12-01T11:32:57.008Z,55.04
2022-12-01T11:35:28.605Z,55.62
2022-12-01T11:38:28.443Z,56.46
2022-12-01T11:40:51.366Z,55.69
2022-12-01T11:43:24.778Z,56.02
2022-12-01T11:45:56.037Z,57.21
2022-12-01T11:48:34.091Z,56.38
2022-12-01T11:51:30.032Z,55.50
2022-12-01T11:54:20.370Z,55.78
2022-12-01T11:56:56.102Z,54.20
2022-12-01T11:59:36.300Z,54.46
2022-12-01T12:02:48.685Z,51.62
2022-12-01T12:05:42.458Z,50.83
2022-12-01T12:08:26.736Z,51.72
2022-12-01T12:10:57.200Z,51.41
2022-12-01T12:13:50.005Z,50.64
2022-12-01T12:16:50.572Z,51.10
2022-12-01T12:20:06.281Z,50.34
2022-12-01T12:22:34.432Z,49.87
2022-12-01T12:25:29.436Z,49.64
2022-12-01T12:28:08.878Z,49.71
2022-12-01T12:31:11.404Z,50.58
2022-12-01T12:33:41.727Z,50.28
2022-12-01T12:36:36.563Z,50.20
2022-12-01T12:39:03.858Z,50.49
2022-12-01T12:41:43.309Z,50.87
2022-12-01T12:44:39.287Z,51.33
2022-12-01T12:47:18.407Z,50.30
2022-12-01T12:50:23.043Z,50.94
2022-12-01T12:52:57.266Z,52.63
2022-12-01T12:55:38.637Z,52.65
2022-12-01T12:58:35.589Z,52.90
2022-12-01T13:01:15.892Z,53.00
2022-12-01T13:04:03.810Z,53.41
2022-12-01T13:06:52.934Z,53.35
2022-12-01T13:09:49.288Z,53.42
2022-12-01T13:12:26.153Z,52.86
2022-12-01T13:15:01.266Z,52.63
2022-12-01T13:17:41.855Z,52.19
2022-12-01T13:20:19.281Z,52.09
2022-12-01T13:22:48.125Z,53.01
2022-12-01T13:25:27.597Z,52.77
2022-12-01T13:27:59.001Z,52.17
2022-12-01T13:30:26.961Z,52.21
2022-12-01T13:33:04.117Z,52.57
2022-12-01T13:35:35.021Z,51.69
2022-12-01T13:38:22.811Z,51.70
2022-12-01T13:41:11.231Z,52.19
2022-12-01T13:43:52.358Z,52.58
2022-12-01T13:46:25.829Z,52.63
2022-12-01T13:48:56.960Z,53.09
2022-12-01T13:51:25.870Z,52.68
2022-12-01T13:54:06.262Z,52.45
2022-12-01T13:56:45.327Z,52.63
2022-12-01T13:59:41.670Z,53.20
2022-12-01T14:02:17.568Z,53.37
2022-12-01T14:04:45.233Z,52.82
2022-12-01T14:07:34.116Z,52.91
2022-12-01T14:10:15.287Z,52.42
2022-12-01T14:12:45.855Z,52.72
2022-12-01T14:15:32.185Z,52.65
2022-12-01T14:18:04.043Z,52.87
2022-12-01T14:20:46.349Z,52.85
2022-12-01T14:23:21.719Z,53.16
2022-12-01T14:26:17.087Z,53.83
2022-12-01T14:29:02.441Z,54.82
2022-12-01T14:31:32.614Z,55.50
2022-12-01T14:34:15.824Z,55.74
2022-12-01T14:36:52.374Z,56.53
2022-12-01T14:39:22.301Z,57.68
2022-12-01T14:41:53.392Z,58.17
2022-12-01T14:44:20.790Z,59.23
2022-12-01T14:46:54.757Z,59.49
2022-12-01T14:49:25.528Z,59.48
2022-12-01T14:52:07.445Z,59.04
2022-12-01T14:54:47.616Z,60.05
2022-12-01T14:57:20.580Z,60.17
2022-12-01T15:00:02.470Z,60.58
2022-12-01T15:02:30.188Z,61.27
2022-12-01T15:05:20.534Z,61.56
2022-12-01T15:07:50.845Z,62.65
2022-12-01T15:10:19.515Z,62.91
2022-12-01T15:12:48.140Z,63.86
2022-12-01T15:15:24.428Z,65.34
2022-12-01T15:17:53.652Z,65.69
2022-12-01T15:20:47.553Z,66.73
2022-12-01T15:23:17.138Z,67.02
2022-12-01T15:25:46.511Z,67.10
2022-12-01T15:28:19.766Z,68.05
2022-12-01T15:30:50.683Z,68.53
2022-12-01T15:33:36.987Z,69.25
2022-12-01T15:36:08.358Z,69.55
2022-12-01T15:38:37.753Z,70.68
2022-12-01T15:43:57.917Z,72.00
2022-12-01T15:46:30.892Z,72.71
2022-12-01T15:49:09.522Z,72.72
2022-12-01T15:51:37.208Z,73.24
2022-12-01T15:54:04.668Z,73.60
2022-12-01T15:56:36.532Z,73.33
2022-12-01T15:59:27.613Z,73.65
2022-12-01T16:01:56.847Z,73.61
2022-12-01T16:04:32.363Z,73.80
2022-12-01T16:07:04.374Z,74.37
2022-12-01T16:09:34.807Z,74.42
2022-12-01T16:12:17.659Z,74.46
2022-12-01T16:15:13.413Z,74.20
2022-12-01T16:17:48.255Z,74.16
2022-12-01T16:20:26.354Z,74.26
2022-12-01T16:23:00.769Z,74.22
2022-12-01T16:25:44.221Z,74.34
2022-12-01T16:28:24.156Z,74.35
2022-12-01T16:30:52.855Z,74.32
2022-12-01T16:33:24.345Z,74.89
2022-12-01T16:35:52.769Z,74.19
2022-12-01T16:38:25.608Z,74.19
2022-12-01T16:40:58.350Z,74.31
2022-12-01T16:43:27.900Z,74.02
2022-12-01T16:46:09.306Z,74.72
2022-12-01T16:48:37.720Z,74.61
2022-12-01T16:51:10.094Z,74.84
2022-12-01T16:53:37.956Z,75.12
2022-12-01T16:56:05.706Z,74.63
2022-12-01T16:58:33.012Z,74.79
2022-12-01T17:01:00.659Z,74.47
2022-12-01T17:03:30.912Z,73.97
2022-12-01T17:06:03.289Z,75.01
2022-12-01T17:08:30.657Z,74.92
2022-12-01T17:10:58.053Z,75.56
2022-12-01T17:13:25.533Z,76.15
2022-12-01T17:15:57.913Z,75.58
2022-12-01T17:18:25.408Z,76.19
2022-12-01T17:21:00.313Z,76.85
2022-12-01T17:23:28.189Z,75.82
2022-12-01T17:25:55.626Z,76.81
2022-12-01T17:28:23.116Z,77.26
2022-12-01T17:30:52.597Z,77.96
2022-12-01T17:33:22.470Z,78.45
2022-12-01T17:35:50.016Z,78.15
2022-12-01T17:38:17.410Z,78.12
2022-12-01T17:40:44.928Z,79.02
2022-12-01T17:43:12.266Z,78.68
2022-12-01T17:45:41.998Z,79.59
2022-12-01T17:48:09.535Z,79.68
2022-12-01T17:50:37.901Z,79.62
2022-12-01T17:53:05.296Z,80.34
2022-12-01T17:55:32.657Z,80.35
2022-12-01T17:58:00.053Z,80.45
2022-12-01T18:00:32.366Z,80.37
2022-12-01T18:03:02.183Z,80.30
2022-12-01T18:05:29.790Z,80.81
2022-12-01T18:07:59.135Z,82.04
2022-12-01T18:10:26.501Z,83.80
2022-12-01T18:12:53.947Z,84.27
2022-12-01T18:15:21.448Z,83.52
2022-12-01T18:17:48.856Z,82.20
2022-12-01T18:20:16.269Z,81.55
2022-12-01T18:22:43.603Z,82.09
2022-12-01T18:25:10.995Z,81.95
2022-12-01T18:27:38.418Z,82.21
2022-12-01T18:30:06.566Z,82.61
2022-12-01T18:32:33.912Z,82.47
2022-12-01T18:35:01.215Z,82.40
2022-12-01T18:37:28.597Z,84.61
2022-12-01T18:39:56.507Z,85.38
2022-12-01T18:42:24.521Z,85.77
2022-12-01T18:44:52.113Z,85.05
2022-12-01T18:47:19.643Z,84.96
2022-12-01T18:49:47.053Z,85.03
2022-12-01T18:52:14.382Z,85.11
2022-12-01T18:54:41.703Z,84.72
2022-12-01T18:57:09.145Z,84.93
2022-12-01T18:59:36.417Z,83.73
2022-12-01T19:02:04.144Z,84.82
2022-12-01T19:04:31.528Z,85.79
2022-12-01T19:06:58.904Z,85.95
2022-12-01T19:09:26.252Z,86.34
2022-12-01T19:12:00.576Z,85.34
2022-12-01T19:14:28.502Z,85.49
2022-12-01T19:16:59.140Z,86.06
2022-12-01T19:19:26.571Z,85.78
2022-12-01T19:21:54.134Z,86.79
2022-12-01T19:24:21.575Z,86.09
2022-12-01T19:26:49.026Z,86.31
2022-12-01T19:29:16.527Z,86.19
2022-12-01T19:31:43.987Z,86.34
2022-12-01T19:34:11.344Z,86.68
2022-12-01T19:36:38.717Z,87.44
2022-12-01T19:39:07.829Z,87.36
2022-12-01T19:41:38.531Z,87.03
2022-12-01T19:44:06.181Z,87.66
2022-12-01T19:46:33.597Z,87.11
2022-12-01T19:49:01.743Z,87.10
2022-12-01T19:51:34.927Z,87.26
2022-12-01T19:54:07.642Z,87.34
2022-12-01T19:56:35.018Z,87.91
2022-12-01T19:59:02.591Z,87.46
2022-12-01T20:01:30.154Z,88.70
2022-12-01T20:03:57.657Z,88.91
2022-12-01T20:06:28.253Z,90.17
2022-12-01T20:08:58.253Z,90.82
2022-12-01T20:11:26.447Z,90.12
2022-12-01T20:13:53.981Z,91.16
2022-12-01T20:16:23.566Z,90.53
2022-12-01T20:18:51.731Z,90.71
2022-12-01T20:21:20.574Z,92.27
2022-12-01T20:23:54.006Z,92.96
2022-12-01T20:26:24.909Z,92.73
2022-12-01T20:29:01.635Z,93.31
2022-12-01T20:31:31.024Z,93.80
2022-12-01T20:34:01.473Z,92.96
2022-12-01T20:36:29.369Z,91.91
2022-12-01T20:38:56.941Z,91.34
2022-12-01T20:41:24.338Z,90.40
2022-12-01T20:43:53.509Z,87.18
2022-12-01T20:46:21.089Z,86.28
2022-12-01T20:48:48.474Z,84.84
2022-12-01T20:51:16.004Z,84.62
2022-12-01T20:53:59.611Z,84.64
2022-12-01T20:56:32.069Z,85.65
2022-12-01T20:59:00.017Z,84.47
2022-12-01T21:01:27.606Z,85.15
2022-12-01T21:03:55.279Z,84.60
2022-12-01T21:06:22.704Z,85.36
2022-12-01T21:08:51.054Z,86.31
2022-12-01T21:11:19.005Z,85.91
2022-12-01T21:13:47.038Z,87.79
2022-12-01T21:16:27.738Z,87.81
2022-12-01T21:19:06.228Z,89.96
2022-12-01T21:21:38.223Z,90.64
2022-12-01T21:24:08.469Z,90.72
2022-12-01T21:26:46.734Z,90.34
2022-12-01T21:29:25.381Z,89.87
2022-12-01T21:32:01.686Z,90.86
2022-12-01T21:34:29.289Z,91.33
2022-12-01T21:37:02.041Z,91.38
2022-12-01T21:39:30.496Z,91.18
2022-12-01T21:42:13.921Z,90.38
2022-12-01T21:44:41.454Z,91.27
2022-12-01T21:47:21.557Z,88.95
2022-12-01T21:49:56.068Z,87.12
2022-12-01T21:52:29.918Z,82.61
2022-12-01T21:55:09.234Z,79.56
2022-12-01T21:57:43.131Z,78.70
2022-12-01T22:00:26.681Z,79.21
2022-12-01T22:03:09.310Z,79.41
2022-12-01T22:05:40.899Z,78.87
2022-12-01T22:08:14.295Z,78.43
2022-12-01T22:10:50.765Z,78.32
2022-12-01T22:13:19.849Z,78.41
2022-12-01T22:15:47.213Z,78.54
2022-12-01T22:18:22.774Z,78.81
2022-12-01T22:20:50.677Z,78.72
2022-12-01T22:23:19.130Z,78.07
2022-12-01T22:25:48.027Z,78.62
2022-12-01T22:28:22.119Z,78.43
2022-12-01T22:30:49.530Z,78.39
2022-12-01T22:33:21.536Z,78.69
2022-12-01T22:35:52.841Z,78.98
2022-12-01T22:38:39.823Z,80.03
2022-12-01T22:41:14.396Z,79.97
2022-12-01T22:43:47.871Z,81.06
2022-12-01T22:46:22.368Z,82.10
2022-12-01T22:49:19.562Z,81.77
2022-12-01T22:52:05.383Z,82.15
2022-12-01T22:54:37.943Z,82.45
2022-12-01T22:57:13.148Z,84.44
2022-12-01T22:59:43.230Z,83.11
2022-12-01T23:02:21.126Z,81.41
2022-12-01T23:04:52.588Z,80.96
2022-12-01T23:07:26.511Z,80.92
2022-12-01T23:10:31.534Z,79.85
2022-12-01T23:13:08.534Z,79.38
2022-12-01T23:15:39.136Z,79.81
2022-12-01T23:18:12.435Z,79.38
2022-12-01T23:20:41.053Z,79.47
2022-12-01T23:23:20.653Z,78.95
2022-12-01T23:25:50.116Z,78.86
2022-12-01T23:28:18.255Z,77.96
2022-12-01T23:30:47.608Z,78.89
2022-12-01T23:33:27.884Z,78.86
2022-12-01T23:36:21.639Z,78.08
2022-12-01T23:38:52.911Z,77.05
2022-12-01T23:41:32.958Z,76.53
2022-12-01T23:44:04.105Z,76.64
2022-12-01T23:46:32.662Z,75.87
2022-12-01T23:49:03.781Z,74.74
2022-12-01T23:51:35.262Z,74.51
2022-12-01T23:54:10.972Z,74.59
2022-12-01T23:56:38.580Z,73.88
2022-12-01T23:59:12.987Z,74.23
